sensor_id;sensor_type;location;lat;lon;timestamp;temperature;humidity
41876;DHT22;27555;50.808;4.402;2023-09-08T00:02:27;22.00;99.90
41876;DHT22;27555;50.808;4.402;2023-09-08T00:04:54;22.00;99.90
41876;DHT22;27555;50.808;4.402;2023-09-08T00:07:20;22.00;99.90
41876;DHT22;27555;50.808;4.402;2023-09-08T00:09:46;22.00;99.90
41876;DHT22;27555;50.808;4.402;2023-09-08T00:12:12;21.90;99.90
41876;DHT22;27555;50.808;4.402;2023-09-08T00:14:38;21.90;99.90
41876;DHT22;27555;50.808;4.402;2023-09-08T00:17:04;21.90;99.90
41876;DHT22;27555;50.808;4.402;2023-09-08T00:19:30;21.90;99.90
41876;DHT22;27555;50.808;4.402;2023-09-08T00:21:56;21.90;99.90
41876;DHT22;27555;50.808;4.402;2023-09-08T00:24:22;21.90;99.90
41876;DHT22;27555;50.808;4.402;2023-09-08T00:26:48;21.90;99.90
41876;DHT22;27555;50.808;4.402;2023-09-08T00:29:13;21.90;99.90
41876;DHT22;27555;50.808;4.402;2023-09-08T00:31:39;21.90;99.90
41876;DHT22;27555;50.808;4.402;2023-09-08T00:34:05;21.80;99.90
41876;DHT22;27555;50.808;4.402;2023-09-08T00:36:32;21.80;99.90
41876;DHT22;27555;50.808;4.402;2023-09-08T00:38:57;21.70;99.90
41876;DHT22;27555;50.808;4.402;2023-09-08T00:41:23;21.70;99.90
41876;DHT22;27555;50.808;4.402;2023-09-08T00:43:49;21.70;99.90
41876;DHT22;27555;50.808;4.402;2023-09-08T00:46:15;21.70;99.90
41876;DHT22;27555;50.808;4.402;2023-09-08T00:48:41;21.70;99.90
41876;DHT22;27555;50.808;4.402;2023-09-08T00:51:08;21.70;99.90
41876;DHT22;27555;50.808;4.402;2023-09-08T00:53:35;21.70;99.90
41876;DHT22;27555;50.808;4.402;2023-09-08T00:56:02;21.70;99.90
41876;DHT22;27555;50.808;4.402;2023-09-08T00:58:28;21.60;99.90
41876;DHT22;27555;50.808;4.402;2023-09-08T01:00:54;21.60;99.90
41876;DHT22;27555;50.808;4.402;2023-09-08T01:03:23;21.60;99.90
41876;DHT22;27555;50.808;4.402;2023-09-08T01:05:49;21.60;99.90
41876;DHT22;27555;50.808;4.402;2023-09-08T01:08:15;21.50;99.90
41876;DHT22;27555;50.808;4.402;2023-09-08T01:10:42;21.50;99.90
41876;DHT22;27555;50.808;4.402;2023-09-08T01:13:08;21.50;99.90
41876;DHT22;27555;50.808;4.402;2023-09-08T01:15:33;21.40;99.90
41876;DHT22;27555;50.808;4.402;2023-09-08T01:17:59;21.50;99.90
41876;DHT22;27555;50.808;4.402;2023-09-08T01:20:31;21.50;99.90
41876;DHT22;27555;50.808;4.402;2023-09-08T01:23:03;21.50;99.90
41876;DHT22;27555;50.808;4.402;2023-09-08T01:25:31;21.50;99.90
41876;DHT22;27555;50.808;4.402;2023-09-08T01:28:00;21.40;99.90
41876;DHT22;27555;50.808;4.402;2023-09-08T01:30:28;21.40;99.90
41876;DHT22;27555;50.808;4.402;2023-09-08T01:32:54;21.40;99.90
41876;DHT22;27555;50.808;4.402;2023-09-08T01:35:21;21.40;99.90
41876;DHT22;27555;50.808;4.402;2023-09-08T01:37:48;21.40;99.90
41876;DHT22;27555;50.808;4.402;2023-09-08T01:40:14;21.40;99.90
41876;DHT22;27555;50.808;4.402;2023-09-08T01:42:41;21.30;99.90
41876;DHT22;27555;50.808;4.402;2023-09-08T01:45:07;21.40;99.90
41876;DHT22;27555;50.808;4.402;2023-09-08T01:47:34;21.40;99.90
41876;DHT22;27555;50.808;4.402;2023-09-08T01:50:01;21.40;99.90
41876;DHT22;27555;50.808;4.402;2023-09-08T01:52:27;21.40;99.90
41876;DHT22;27555;50.808;4.402;2023-09-08T01:54:52;21.40;99.90
41876;DHT22;27555;50.808;4.402;2023-09-08T01:57:18;21.30;99.90
41876;DHT22;27555;50.808;4.402;2023-09-08T01:59:44;21.30;99.90
41876;DHT22;27555;50.808;4.402;2023-09-08T02:02:11;21.30;99.90
41876;DHT22;27555;50.808;4.402;2023-09-08T02:04:38;21.30;99.90
41876;DHT22;27555;50.808;4.402;2023-09-08T02:07:03;21.30;99.90
41876;DHT22;27555;50.808;4.402;2023-09-08T02:09:34;21.30;99.90
41876;DHT22;27555;50.808;4.402;2023-09-08T02:12:00;21.30;99.90
41876;DHT22;27555;50.808;4.402;2023-09-08T02:14:26;21.30;99.90
41876;DHT22;27555;50.808;4.402;2023-09-08T02:16:53;21.30;99.90
41876;DHT22;27555;50.808;4.402;2023-09-08T02:19:19;21.20;99.90
41876;DHT22;27555;50.808;4.402;2023-09-08T02:21:44;21.20;99.90
41876;DHT22;27555;50.808;4.402;2023-09-08T02:24:10;21.20;99.90
41876;DHT22;27555;50.808;4.402;2023-09-08T02:26:36;21.20;99.90
41876;DHT22;27555;50.808;4.402;2023-09-08T02:29:01;21.10;99.90
41876;DHT22;27555;50.808;4.402;2023-09-08T02:31:27;21.10;99.90
41876;DHT22;27555;50.808;4.402;2023-09-08T02:33:53;21.10;99.90
41876;DHT22;27555;50.808;4.402;2023-09-08T02:36:19;21.10;99.90
41876;DHT22;27555;50.808;4.402;2023-09-08T02:38:54;21.00;99.90
41876;DHT22;27555;50.808;4.402;2023-09-08T02:41:20;20.90;99.90
41876;DHT22;27555;50.808;4.402;2023-09-08T02:43:47;21.00;99.90
41876;DHT22;27555;50.808;4.402;2023-09-08T02:46:13;21.00;99.90
41876;DHT22;27555;50.808;4.402;2023-09-08T02:48:39;20.90;99.90
41876;DHT22;27555;50.808;4.402;2023-09-08T02:51:05;20.90;99.90
41876;DHT22;27555;50.808;4.402;2023-09-08T02:53:31;20.90;99.90
41876;DHT22;27555;50.808;4.402;2023-09-08T02:55:57;20.90;99.90
41876;DHT22;27555;50.808;4.402;2023-09-08T02:58:23;20.90;99.90
41876;DHT22;27555;50.808;4.402;2023-09-08T03:00:48;20.90;99.90
41876;DHT22;27555;50.808;4.402;2023-09-08T03:03:19;20.80;99.90
41876;DHT22;27555;50.808;4.402;2023-09-08T03:05:45;20.80;99.90
41876;DHT22;27555;50.808;4.402;2023-09-08T03:08:10;20.80;99.90
41876;DHT22;27555;50.808;4.402;2023-09-08T03:10:36;20.80;99.90
41876;DHT22;27555;50.808;4.402;2023-09-08T03:13:05;20.80;99.90
41876;DHT22;27555;50.808;4.402;2023-09-08T03:15:31;20.80;99.90
41876;DHT22;27555;50.808;4.402;2023-09-08T03:17:58;20.90;99.90
41876;DHT22;27555;50.808;4.402;2023-09-08T03:20:24;20.90;99.90
41876;DHT22;27555;50.808;4.402;2023-09-08T03:22:51;20.80;99.90
41876;DHT22;27555;50.808;4.402;2023-09-08T03:25:17;20.80;99.90
41876;DHT22;27555;50.808;4.402;2023-09-08T03:27:43;20.80;99.90
41876;DHT22;27555;50.808;4.402;2023-09-08T03:30:09;20.80;99.90
41876;DHT22;27555;50.808;4.402;2023-09-08T03:32:35;20.80;99.90
41876;DHT22;27555;50.808;4.402;2023-09-08T03:35:00;20.70;99.90
41876;DHT22;27555;50.808;4.402;2023-09-08T03:37:26;20.70;99.90
41876;DHT22;27555;50.808;4.402;2023-09-08T03:39:52;20.70;99.90
41876;DHT22;27555;50.808;4.402;2023-09-08T03:42:18;20.70;99.90
41876;DHT22;27555;50.808;4.402;2023-09-08T03:44:45;20.70;99.90
41876;DHT22;27555;50.808;4.402;2023-09-08T03:47:11;20.60;99.90
41876;DHT22;27555;50.808;4.402;2023-09-08T03:49:36;20.60;99.90
41876;DHT22;27555;50.808;4.402;2023-09-08T03:52:02;20.50;99.90
41876;DHT22;27555;50.808;4.402;2023-09-08T03:54:28;20.50;99.90
41876;DHT22;27555;50.808;4.402;2023-09-08T03:56:53;20.50;99.90
41876;DHT22;27555;50.808;4.402;2023-09-08T03:59:19;20.50;99.90
41876;DHT22;27555;50.808;4.402;2023-09-08T04:01:45;20.50;99.90
41876;DHT22;27555;50.808;4.402;2023-09-08T04:04:11;20.60;99.90
41876;DHT22;27555;50.808;4.402;2023-09-08T04:06:37;20.50;99.90
41876;DHT22;27555;50.808;4.402;2023-09-08T04:09:03;20.50;99.90
41876;DHT22;27555;50.808;4.402;2023-09-08T04:11:28;20.50;99.90
41876;DHT22;27555;50.808;4.402;2023-09-08T04:13:54;20.50;99.90
41876;DHT22;27555;50.808;4.402;2023-09-08T04:16:20;20.50;99.90
41876;DHT22;27555;50.808;4.402;2023-09-08T04:18:45;20.50;99.90
41876;DHT22;27555;50.808;4.402;2023-09-08T04:21:11;20.50;99.90
41876;DHT22;27555;50.808;4.402;2023-09-08T04:23:36;20.50;99.90
41876;DHT22;27555;50.808;4.402;2023-09-08T04:26:02;20.40;99.90
41876;DHT22;27555;50.808;4.402;2023-09-08T04:28:28;20.40;99.90
41876;DHT22;27555;50.808;4.402;2023-09-08T04:30:54;20.30;99.90
41876;DHT22;27555;50.808;4.402;2023-09-08T04:33:19;20.30;99.90
41876;DHT22;27555;50.808;4.402;2023-09-08T04:35:45;20.40;99.90
41876;DHT22;27555;50.808;4.402;2023-09-08T04:38:10;20.40;99.90
41876;DHT22;27555;50.808;4.402;2023-09-08T04:40:39;20.40;99.90
41876;DHT22;27555;50.808;4.402;2023-09-08T04:43:05;20.30;99.90
41876;DHT22;27555;50.808;4.402;2023-09-08T04:45:30;20.30;99.90
41876;DHT22;27555;50.808;4.402;2023-09-08T04:47:56;20.30;99.90
41876;DHT22;27555;50.808;4.402;2023-09-08T04:50:22;20.30;99.90
41876;DHT22;27555;50.808;4.402;2023-09-08T04:52:47;20.40;99.90
41876;DHT22;27555;50.808;4.402;2023-09-08T04:55:13;20.30;99.90
41876;DHT22;27555;50.808;4.402;2023-09-08T04:57:38;20.30;99.90
41876;DHT22;27555;50.808;4.402;2023-09-08T05:00:05;20.30;99.90
41876;DHT22;27555;50.808;4.402;2023-09-08T05:02:31;20.30;99.90
41876;DHT22;27555;50.808;4.402;2023-09-08T05:04:56;20.30;99.90
41876;DHT22;27555;50.808;4.402;2023-09-08T05:07:22;20.30;99.90
41876;DHT22;27555;50.808;4.402;2023-09-08T05:09:47;20.30;99.90
41876;DHT22;27555;50.808;4.402;2023-09-08T05:12:13;20.40;99.90
41876;DHT22;27555;50.808;4.402;2023-09-08T05:14:39;20.30;99.90
41876;DHT22;27555;50.808;4.402;2023-09-08T05:17:04;20.30;99.90
41876;DHT22;27555;50.808;4.402;2023-09-08T05:19:30;20.30;99.90
41876;DHT22;27555;50.808;4.402;2023-09-08T05:21:56;20.30;99.90
41876;DHT22;27555;50.808;4.402;2023-09-08T05:24:21;20.30;99.90
41876;DHT22;27555;50.808;4.402;2023-09-08T05:26:47;20.30;99.90
41876;DHT22;27555;50.808;4.402;2023-09-08T05:29:13;20.30;99.90
41876;DHT22;27555;50.808;4.402;2023-09-08T05:31:39;20.40;99.90
41876;DHT22;27555;50.808;4.402;2023-09-08T05:34:05;20.30;99.90
41876;DHT22;27555;50.808;4.402;2023-09-08T05:36:30;20.30;99.90
41876;DHT22;27555;50.808;4.402;2023-09-08T05:38:58;20.30;99.90
41876;DHT22;27555;50.808;4.402;2023-09-08T05:41:23;20.30;99.90
41876;DHT22;27555;50.808;4.402;2023-09-08T05:43:49;20.30;99.90
41876;DHT22;27555;50.808;4.402;2023-09-08T05:46:14;20.40;99.90
41876;DHT22;27555;50.808;4.402;2023-09-08T05:48:40;20.40;99.90
41876;DHT22;27555;50.808;4.402;2023-09-08T05:51:06;20.40;99.90
41876;DHT22;27555;50.808;4.402;2023-09-08T05:53:32;20.40;99.90
41876;DHT22;27555;50.808;4.402;2023-09-08T05:55:59;20.40;99.90
41876;DHT22;27555;50.808;4.402;2023-09-08T05:58:24;20.50;99.90
41876;DHT22;27555;50.808;4.402;2023-09-08T06:00:53;20.50;99.90
41876;DHT22;27555;50.808;4.402;2023-09-08T06:03:19;20.60;99.90
41876;DHT22;27555;50.808;4.402;2023-09-08T06:05:45;20.60;99.90
41876;DHT22;27555;50.808;4.402;2023-09-08T06:08:10;20.70;99.90
41876;DHT22;27555;50.808;4.402;2023-09-08T06:10:37;20.70;99.90
41876;DHT22;27555;50.808;4.402;2023-09-08T06:13:03;20.80;99.90
41876;DHT22;27555;50.808;4.402;2023-09-08T06:15:28;20.80;99.90
41876;DHT22;27555;50.808;4.402;2023-09-08T06:17:54;20.90;99.90
41876;DHT22;27555;50.808;4.402;2023-09-08T06:20:20;20.90;99.90
41876;DHT22;27555;50.808;4.402;2023-09-08T06:22:46;21.00;99.90
41876;DHT22;27555;50.808;4.402;2023-09-08T06:25:12;21.00;99.90
41876;DHT22;27555;50.808;4.402;2023-09-08T06:27:38;21.10;99.90
41876;DHT22;27555;50.808;4.402;2023-09-08T06:30:04;21.20;99.90
41876;DHT22;27555;50.808;4.402;2023-09-08T06:32:30;21.30;99.90
41876;DHT22;27555;50.808;4.402;2023-09-08T06:34:56;21.30;99.90
41876;DHT22;27555;50.808;4.402;2023-09-08T06:37:21;21.40;99.90
41876;DHT22;27555;50.808;4.402;2023-09-08T06:39:47;21.50;99.90
41876;DHT22;27555;50.808;4.402;2023-09-08T06:42:12;21.60;99.90
41876;DHT22;27555;50.808;4.402;2023-09-08T06:44:38;21.60;99.90
41876;DHT22;27555;50.808;4.402;2023-09-08T06:47:04;21.70;99.90
41876;DHT22;27555;50.808;4.402;2023-09-08T06:49:32;21.80;99.90
41876;DHT22;27555;50.808;4.402;2023-09-08T06:51:58;21.90;99.90
41876;DHT22;27555;50.808;4.402;2023-09-08T06:54:23;22.00;99.90
41876;DHT22;27555;50.808;4.402;2023-09-08T06:56:49;22.10;99.90
41876;DHT22;27555;50.808;4.402;2023-09-08T06:59:14;22.30;99.90
41876;DHT22;27555;50.808;4.402;2023-09-08T07:01:40;22.40;99.90
41876;DHT22;27555;50.808;4.402;2023-09-08T07:04:06;22.40;99.90
41876;DHT22;27555;50.808;4.402;2023-09-08T07:06:31;22.60;99.90
41876;DHT22;27555;50.808;4.402;2023-09-08T07:08:57;22.70;99.90
41876;DHT22;27555;50.808;4.402;2023-09-08T07:11:23;22.80;99.90
41876;DHT22;27555;50.808;4.402;2023-09-08T07:13:48;23.00;99.90
41876;DHT22;27555;50.808;4.402;2023-09-08T07:16:14;23.20;99.90
41876;DHT22;27555;50.808;4.402;2023-09-08T07:18:39;24.10;99.90
41876;DHT22;27555;50.808;4.402;2023-09-08T07:21:05;25.70;99.90
41876;DHT22;27555;50.808;4.402;2023-09-08T07:23:31;27.10;99.90
41876;DHT22;27555;50.808;4.402;2023-09-08T07:25:57;28.30;99.90
41876;DHT22;27555;50.808;4.402;2023-09-08T07:28:22;29.30;99.90
41876;DHT22;27555;50.808;4.402;2023-09-08T07:30:48;30.20;98.90
41876;DHT22;27555;50.808;4.402;2023-09-08T07:33:14;31.00;97.80
41876;DHT22;27555;50.808;4.402;2023-09-08T07:35:40;31.70;97.00
41876;DHT22;27555;50.808;4.402;2023-09-08T07:38:06;32.40;95.70
41876;DHT22;27555;50.808;4.402;2023-09-08T07:40:33;33.00;95.10
41876;DHT22;27555;50.808;4.402;2023-09-08T07:42:59;33.40;94.40
41876;DHT22;27555;50.808;4.402;2023-09-08T07:45:24;33.80;93.80
41876;DHT22;27555;50.808;4.402;2023-09-08T07:47:51;34.20;93.70
41876;DHT22;27555;50.808;4.402;2023-09-08T07:50:27;34.60;93.10
41876;DHT22;27555;50.808;4.402;2023-09-08T07:52:55;35.20;92.70
41876;DHT22;27555;50.808;4.402;2023-09-08T07:55:21;35.40;92.10
41876;DHT22;27555;50.808;4.402;2023-09-08T07:57:54;35.80;91.60
41876;DHT22;27555;50.808;4.402;2023-09-08T08:00:20;35.70;91.10
41876;DHT22;27555;50.808;4.402;2023-09-08T08:02:48;36.10;91.10
41876;DHT22;27555;50.808;4.402;2023-09-08T08:05:14;36.30;90.70
41876;DHT22;27555;50.808;4.402;2023-09-08T08:07:42;36.30;90.50
41876;DHT22;27555;50.808;4.402;2023-09-08T08:10:07;36.40;90.20
41876;DHT22;27555;50.808;4.402;2023-09-08T08:12:34;36.70;90.40
41876;DHT22;27555;50.808;4.402;2023-09-08T08:14:59;36.80;89.80
41876;DHT22;27555;50.808;4.402;2023-09-08T08:17:25;36.90;89.70
41876;DHT22;27555;50.808;4.402;2023-09-08T08:19:53;37.30;89.30
41876;DHT22;27555;50.808;4.402;2023-09-08T08:22:19;37.30;88.80
41876;DHT22;27555;50.808;4.402;2023-09-08T08:24:45;37.40;88.70
41876;DHT22;27555;50.808;4.402;2023-09-08T08:27:11;37.50;88.60
41876;DHT22;27555;50.808;4.402;2023-09-08T08:29:37;37.80;88.20
41876;DHT22;27555;50.808;4.402;2023-09-08T08:32:03;38.00;87.70
41876;DHT22;27555;50.808;4.402;2023-09-08T08:34:28;38.20;87.40
41876;DHT22;27555;50.808;4.402;2023-09-08T08:36:54;38.40;86.90
41876;DHT22;27555;50.808;4.402;2023-09-08T08:39:20;38.60;86.70
41876;DHT22;27555;50.808;4.402;2023-09-08T08:41:45;38.80;86.30
41876;DHT22;27555;50.808;4.402;2023-09-08T08:44:11;38.80;86.00
41876;DHT22;27555;50.808;4.402;2023-09-08T08:46:37;39.10;85.50
41876;DHT22;27555;50.808;4.402;2023-09-08T08:49:04;39.40;85.30
41876;DHT22;27555;50.808;4.402;2023-09-08T08:51:31;39.50;84.80
41876;DHT22;27555;50.808;4.402;2023-09-08T08:53:57;39.40;84.60
41876;DHT22;27555;50.808;4.402;2023-09-08T08:56:23;39.30;84.10
41876;DHT22;27555;50.808;4.402;2023-09-08T08:58:49;39.40;84.50
41876;DHT22;27555;50.808;4.402;2023-09-08T09:01:18;39.70;84.30
41876;DHT22;27555;50.808;4.402;2023-09-08T09:03:49;40.00;83.70
41876;DHT22;27555;50.808;4.402;2023-09-08T09:06:15;40.10;83.40
41876;DHT22;27555;50.808;4.402;2023-09-08T09:08:43;40.70;83.00
41876;DHT22;27555;50.808;4.402;2023-09-08T09:11:09;40.70;82.30
41876;DHT22;27555;50.808;4.402;2023-09-08T09:13:36;40.70;82.40
41876;DHT22;27555;50.808;4.402;2023-09-08T09:16:02;40.70;82.40
41876;DHT22;27555;50.808;4.402;2023-09-08T09:18:32;40.90;82.00
41876;DHT22;27555;50.808;4.402;2023-09-08T09:21:01;41.00;81.50
41876;DHT22;27555;50.808;4.402;2023-09-08T09:23:31;40.70;81.60
41876;DHT22;27555;50.808;4.402;2023-09-08T09:25:57;40.50;81.80
41876;DHT22;27555;50.808;4.402;2023-09-08T09:28:24;40.10;82.40
41876;DHT22;27555;50.808;4.402;2023-09-08T09:30:51;40.50;81.90
41876;DHT22;27555;50.808;4.402;2023-09-08T09:33:17;40.80;81.50
41876;DHT22;27555;50.808;4.402;2023-09-08T09:35:45;41.00;80.90
41876;DHT22;27555;50.808;4.402;2023-09-08T09:38:12;40.90;81.10
41876;DHT22;27555;50.808;4.402;2023-09-08T09:40:38;40.90;81.10
41876;DHT22;27555;50.808;4.402;2023-09-08T09:43:05;41.30;81.20
41876;DHT22;27555;50.808;4.402;2023-09-08T09:45:34;41.40;81.00
41876;DHT22;27555;50.808;4.402;2023-09-08T09:48:00;41.60;80.80
41876;DHT22;27555;50.808;4.402;2023-09-08T09:50:35;41.80;80.40
41876;DHT22;27555;50.808;4.402;2023-09-08T09:53:07;41.60;80.20
41876;DHT22;27555;50.808;4.402;2023-09-08T09:55:33;41.30;80.60
41876;DHT22;27555;50.808;4.402;2023-09-08T09:58:01;41.70;80.00
41876;DHT22;27555;50.808;4.402;2023-09-08T10:00:30;42.00;79.80
41876;DHT22;27555;50.808;4.402;2023-09-08T10:02:57;41.70;79.60
41876;DHT22;27555;50.808;4.402;2023-09-08T10:05:24;41.60;80.20
41876;DHT22;27555;50.808;4.402;2023-09-08T10:07:51;41.90;80.00
41876;DHT22;27555;50.808;4.402;2023-09-08T10:10:17;42.20;79.70
41876;DHT22;27555;50.808;4.402;2023-09-08T10:12:45;42.40;79.40
41876;DHT22;27555;50.808;4.402;2023-09-08T10:15:11;42.40;79.20
41876;DHT22;27555;50.808;4.402;2023-09-08T10:17:39;42.70;78.70
41876;DHT22;27555;50.808;4.402;2023-09-08T10:20:08;43.00;77.70
41876;DHT22;27555;50.808;4.402;2023-09-08T10:22:41;43.20;77.20
41876;DHT22;27555;50.808;4.402;2023-09-08T10:25:08;43.20;77.10
41876;DHT22;27555;50.808;4.402;2023-09-08T10:27:34;43.20;76.80
41876;DHT22;27555;50.808;4.402;2023-09-08T10:30:02;43.20;76.90
41876;DHT22;27555;50.808;4.402;2023-09-08T10:32:35;43.40;76.10
41876;DHT22;27555;50.808;4.402;2023-09-08T10:35:03;43.10;76.40
41876;DHT22;27555;50.808;4.402;2023-09-08T10:37:29;42.60;76.80
41876;DHT22;27555;50.808;4.402;2023-09-08T10:39:56;42.70;77.40
41876;DHT22;27555;50.808;4.402;2023-09-08T10:42:24;42.80;75.20
41876;DHT22;27555;50.808;4.402;2023-09-08T10:45:01;41.90;75.50
41876;DHT22;27555;50.808;4.402;2023-09-08T10:47:56;42.20;75.50
41876;DHT22;27555;50.808;4.402;2023-09-08T10:50:35;42.10;75.40
41876;DHT22;27555;50.808;4.402;2023-09-08T10:53:21;42.10;75.20
41876;DHT22;27555;50.808;4.402;2023-09-08T10:55:49;42.50;75.10
41876;DHT22;27555;50.808;4.402;2023-09-08T10:58:29;42.50;74.60
41876;DHT22;27555;50.808;4.402;2023-09-08T11:00:59;41.30;76.20
41876;DHT22;27555;50.808;4.402;2023-09-08T11:06:07;42.80;73.70
41876;DHT22;27555;50.808;4.402;2023-09-08T11:08:36;42.50;73.90
41876;DHT22;27555;50.808;4.402;2023-09-08T11:11:02;42.20;73.10
41876;DHT22;27555;50.808;4.402;2023-09-08T11:13:28;42.80;72.90
41876;DHT22;27555;50.808;4.402;2023-09-08T11:15:54;42.90;72.60
41876;DHT22;27555;50.808;4.402;2023-09-08T11:18:26;43.20;72.30
41876;DHT22;27555;50.808;4.402;2023-09-08T11:20:53;43.20;72.20
41876;DHT22;27555;50.808;4.402;2023-09-08T11:23:20;42.70;71.50
41876;DHT22;27555;50.808;4.402;2023-09-08T11:25:46;41.20;73.50
41876;DHT22;27555;50.808;4.402;2023-09-08T11:28:12;41.30;74.30
41876;DHT22;27555;50.808;4.402;2023-09-08T11:30:39;42.30;74.20
41876;DHT22;27555;50.808;4.402;2023-09-08T11:33:16;42.70;73.50
41876;DHT22;27555;50.808;4.402;2023-09-08T11:35:45;42.80;72.90
41876;DHT22;27555;50.808;4.402;2023-09-08T11:38:11;42.50;73.30
41876;DHT22;27555;50.808;4.402;2023-09-08T11:40:37;42.50;71.90
41876;DHT22;27555;50.808;4.402;2023-09-08T11:43:04;42.70;72.20
41876;DHT22;27555;50.808;4.402;2023-09-08T11:45:33;43.10;72.30
41876;DHT22;27555;50.808;4.402;2023-09-08T11:47:59;43.20;71.60
41876;DHT22;27555;50.808;4.402;2023-09-08T11:50:25;42.80;70.90
41876;DHT22;27555;50.808;4.402;2023-09-08T11:52:53;42.40;71.40
41876;DHT22;27555;50.808;4.402;2023-09-08T11:55:20;42.30;71.50
41876;DHT22;27555;50.808;4.402;2023-09-08T11:57:52;42.10;71.50
41876;DHT22;27555;50.808;4.402;2023-09-08T12:00:23;42.10;71.70
41876;DHT22;27555;50.808;4.402;2023-09-08T12:02:50;42.40;71.90
41876;DHT22;27555;50.808;4.402;2023-09-08T12:05:24;42.60;71.00
41876;DHT22;27555;50.808;4.402;2023-09-08T12:07:57;42.40;71.20
41876;DHT22;27555;50.808;4.402;2023-09-08T12:10:24;42.20;71.20
41876;DHT22;27555;50.808;4.402;2023-09-08T12:12:52;42.10;71.90
41876;DHT22;27555;50.808;4.402;2023-09-08T12:15:49;41.70;72.10
41876;DHT22;27555;50.808;4.402;2023-09-08T12:18:15;41.50;72.50
41876;DHT22;27555;50.808;4.402;2023-09-08T12:20:41;41.40;73.10
41876;DHT22;27555;50.808;4.402;2023-09-08T12:23:19;41.10;73.50
41876;DHT22;27555;50.808;4.402;2023-09-08T12:25:50;40.50;73.50
41876;DHT22;27555;50.808;4.402;2023-09-08T12:28:18;39.80;74.10
41876;DHT22;27555;50.808;4.402;2023-09-08T12:30:44;39.40;74.60
41876;DHT22;27555;50.808;4.402;2023-09-08T12:33:10;39.00;75.60
41876;DHT22;27555;50.808;4.402;2023-09-08T12:35:36;38.10;76.10
41876;DHT22;27555;50.808;4.402;2023-09-08T12:38:04;37.00;77.70
41876;DHT22;27555;50.808;4.402;2023-09-08T12:40:35;36.40;78.10
41876;DHT22;27555;50.808;4.402;2023-09-08T12:43:02;35.80;79.90
41876;DHT22;27555;50.808;4.402;2023-09-08T12:45:29;34.60;81.50
41876;DHT22;27555;50.808;4.402;2023-09-08T12:47:58;34.10;81.90
41876;DHT22;27555;50.808;4.402;2023-09-08T12:50:25;34.10;82.60
41876;DHT22;27555;50.808;4.402;2023-09-08T12:52:50;34.30;82.60
41876;DHT22;27555;50.808;4.402;2023-09-08T12:55:16;34.50;82.10
41876;DHT22;27555;50.808;4.402;2023-09-08T12:57:42;34.40;81.90
41876;DHT22;27555;50.808;4.402;2023-09-08T13:00:08;34.20;82.20
41876;DHT22;27555;50.808;4.402;2023-09-08T13:02:34;34.00;82.80
41876;DHT22;27555;50.808;4.402;2023-09-08T13:05:00;34.20;82.50
41876;DHT22;27555;50.808;4.402;2023-09-08T13:07:26;34.10;82.90
41876;DHT22;27555;50.808;4.402;2023-09-08T13:09:52;34.10;83.00
41876;DHT22;27555;50.808;4.402;2023-09-08T13:12:18;34.10;82.80
41876;DHT22;27555;50.808;4.402;2023-09-08T13:14:44;34.20;83.20
41876;DHT22;27555;50.808;4.402;2023-09-08T13:17:13;34.20;82.70
41876;DHT22;27555;50.808;4.402;2023-09-08T13:19:44;34.10;82.70
41876;DHT22;27555;50.808;4.402;2023-09-08T13:22:09;34.10;82.20
41876;DHT22;27555;50.808;4.402;2023-09-08T13:24:36;33.70;82.70
41876;DHT22;27555;50.808;4.402;2023-09-08T13:27:02;33.70;82.90
41876;DHT22;27555;50.808;4.402;2023-09-08T13:29:28;33.90;82.70
41876;DHT22;27555;50.808;4.402;2023-09-08T13:31:54;34.00;82.20
41876;DHT22;27555;50.808;4.402;2023-09-08T13:34:21;34.00;82.70
41876;DHT22;27555;50.808;4.402;2023-09-08T13:36:47;33.90;82.80
41876;DHT22;27555;50.808;4.402;2023-09-08T13:39:12;33.80;82.60
41876;DHT22;27555;50.808;4.402;2023-09-08T13:41:50;33.90;82.60
41876;DHT22;27555;50.808;4.402;2023-09-08T13:44:20;33.80;83.10
41876;DHT22;27555;50.808;4.402;2023-09-08T13:46:47;33.70;83.20
41876;DHT22;27555;50.808;4.402;2023-09-08T13:49:13;33.60;83.20
41876;DHT22;27555;50.808;4.402;2023-09-08T13:51:39;33.50;83.90
41876;DHT22;27555;50.808;4.402;2023-09-08T13:54:06;33.70;84.30
41876;DHT22;27555;50.808;4.402;2023-09-08T13:56:31;33.70;84.40
41876;DHT22;27555;50.808;4.402;2023-09-08T13:58:57;33.50;84.30
41876;DHT22;27555;50.808;4.402;2023-09-08T14:01:23;33.40;85.90
41876;DHT22;27555;50.808;4.402;2023-09-08T14:03:48;33.60;84.40
41876;DHT22;27555;50.808;4.402;2023-09-08T14:06:18;33.20;84.30
41876;DHT22;27555;50.808;4.402;2023-09-08T14:08:44;33.10;84.70
41876;DHT22;27555;50.808;4.402;2023-09-08T14:11:09;32.90;85.70
41876;DHT22;27555;50.808;4.402;2023-09-08T14:13:35;32.80;86.00
41876;DHT22;27555;50.808;4.402;2023-09-08T14:16:01;32.60;86.60
41876;DHT22;27555;50.808;4.402;2023-09-08T14:18:26;32.80;86.10
41876;DHT22;27555;50.808;4.402;2023-09-08T14:20:52;32.90;86.10
41876;DHT22;27555;50.808;4.402;2023-09-08T14:23:18;33.20;86.50
41876;DHT22;27555;50.808;4.402;2023-09-08T14:25:43;33.30;85.60
41876;DHT22;27555;50.808;4.402;2023-09-08T14:28:09;33.40;85.10
41876;DHT22;27555;50.808;4.402;2023-09-08T14:30:35;33.40;85.10
41876;DHT22;27555;50.808;4.402;2023-09-08T14:33:01;33.30;85.50
41876;DHT22;27555;50.808;4.402;2023-09-08T14:35:26;33.40;85.70
41876;DHT22;27555;50.808;4.402;2023-09-08T14:37:52;33.30;85.20
41876;DHT22;27555;50.808;4.402;2023-09-08T14:40:18;32.90;86.50
41876;DHT22;27555;50.808;4.402;2023-09-08T14:42:43;32.90;87.00
41876;DHT22;27555;50.808;4.402;2023-09-08T14:45:09;32.80;87.20
41876;DHT22;27555;50.808;4.402;2023-09-08T14:47:35;32.90;86.90
41876;DHT22;27555;50.808;4.402;2023-09-08T14:50:01;32.90;87.10
41876;DHT22;27555;50.808;4.402;2023-09-08T14:52:28;33.00;87.30
41876;DHT22;27555;50.808;4.402;2023-09-08T14:54:54;33.20;87.00
41876;DHT22;27555;50.808;4.402;2023-09-08T14:57:21;33.30;86.80
41876;DHT22;27555;50.808;4.402;2023-09-08T14:59:46;33.10;86.90
41876;DHT22;27555;50.808;4.402;2023-09-08T15:02:12;32.80;87.90
41876;DHT22;27555;50.808;4.402;2023-09-08T15:04:37;33.00;86.90
41876;DHT22;27555;50.808;4.402;2023-09-08T15:07:03;32.90;86.80
41876;DHT22;27555;50.808;4.402;2023-09-08T15:09:29;32.90;87.30
41876;DHT22;27555;50.808;4.402;2023-09-08T15:11:55;32.70;87.90
41876;DHT22;27555;50.808;4.402;2023-09-08T15:14:20;32.90;87.90
41876;DHT22;27555;50.808;4.402;2023-09-08T15:16:46;32.80;88.00
41876;DHT22;27555;50.808;4.402;2023-09-08T15:19:12;32.80;87.90
41876;DHT22;27555;50.808;4.402;2023-09-08T15:21:38;32.70;88.00
41876;DHT22;27555;50.808;4.402;2023-09-08T15:24:04;32.60;88.30
41876;DHT22;27555;50.808;4.402;2023-09-08T15:26:30;32.80;88.50
41876;DHT22;27555;50.808;4.402;2023-09-08T15:28:56;32.90;88.80
41876;DHT22;27555;50.808;4.402;2023-09-08T15:31:22;33.00;88.40